sensor_id;sensor_type;location;lat;lon;timestamp;P1;durP1;ratioP1;P2;durP2;ratioP2
82703;SDS011;72427;42.000;21.464;2023-09-07T00:01:50;9.10;;;6.90;;
82703;SDS011;72427;42.000;21.464;2023-09-07T00:04:18;10.10;;;6.40;;
82703;SDS011;72427;42.000;21.464;2023-09-07T00:06:44;9.07;;;6.45;;
82703;SDS011;72427;42.000;21.464;2023-09-07T00:09:10;7.38;;;6.03;;
82703;SDS011;72427;42.000;21.464;2023-09-07T00:11:37;25.92;;;8.68;;
82703;SDS011;72427;42.000;21.464;2023-09-07T00:14:04;9.75;;;6.72;;
82703;SDS011;72427;42.000;21.464;2023-09-07T00:16:33;8.43;;;6.95;;
82703;SDS011;72427;42.000;21.464;2023-09-07T00:19:00;8.80;;;7.10;;
82703;SDS011;72427;42.000;21.464;2023-09-07T00:21:28;9.75;;;6.88;;
82703;SDS011;72427;42.000;21.464;2023-09-07T00:23:54;9.18;;;6.40;;
82703;SDS011;72427;42.000;21.464;2023-09-07T00:26:20;9.13;;;6.72;;
82703;SDS011;72427;42.000;21.464;2023-09-07T00:28:47;9.75;;;6.75;;
82703;SDS011;72427;42.000;21.464;2023-09-07T00:31:13;11.30;;;6.95;;
82703;SDS011;72427;42.000;21.464;2023-09-07T00:33:39;7.45;;;6.30;;
82703;SDS011;72427;42.000;21.464;2023-09-07T00:36:05;9.73;;;6.93;;
82703;SDS011;72427;42.000;21.464;2023-09-07T00:38:31;10.25;;;6.97;;
82703;SDS011;72427;42.000;21.464;2023-09-07T00:40:57;8.82;;;6.90;;
82703;SDS011;72427;42.000;21.464;2023-09-07T00:43:23;10.38;;;6.78;;
82703;SDS011;72427;42.000;21.464;2023-09-07T00:45:49;8.32;;;6.82;;
82703;SDS011;72427;42.000;21.464;2023-09-07T00:48:16;9.07;;;7.13;;
82703;SDS011;72427;42.000;21.464;2023-09-07T00:50:42;8.75;;;6.95;;
82703;SDS011;72427;42.000;21.464;2023-09-07T00:53:09;8.55;;;7.05;;
82703;SDS011;72427;42.000;21.464;2023-09-07T00:55:36;9.05;;;6.97;;
82703;SDS011;72427;42.000;21.464;2023-09-07T00:58:02;8.70;;;6.60;;
82703;SDS011;72427;42.000;21.464;2023-09-07T01:00:29;10.13;;;6.70;;
82703;SDS011;72427;42.000;21.464;2023-09-07T01:02:55;13.60;;;7.28;;
82703;SDS011;72427;42.000;21.464;2023-09-07T01:05:26;9.07;;;6.90;;
82703;SDS011;72427;42.000;21.464;2023-09-07T01:07:54;10.23;;;7.07;;
82703;SDS011;72427;42.000;21.464;2023-09-07T01:10:21;9.70;;;7.15;;
82703;SDS011;72427;42.000;21.464;2023-09-07T01:12:47;9.93;;;7.05;;
82703;SDS011;72427;42.000;21.464;2023-09-07T01:15:14;8.60;;;6.78;;
82703;SDS011;72427;42.000;21.464;2023-09-07T01:17:40;9.02;;;6.63;;
82703;SDS011;72427;42.000;21.464;2023-09-07T01:20:07;9.02;;;7.18;;
82703;SDS011;72427;42.000;21.464;2023-09-07T01:22:36;10.20;;;7.05;;
82703;SDS011;72427;42.000;21.464;2023-09-07T01:25:03;9.55;;;6.95;;
82703;SDS011;72427;42.000;21.464;2023-09-07T01:27:30;8.77;;;7.13;;
82703;SDS011;72427;42.000;21.464;2023-09-07T01:29:57;9.43;;;6.93;;
82703;SDS011;72427;42.000;21.464;2023-09-07T01:32:23;9.45;;;7.22;;
82703;SDS011;72427;42.000;21.464;2023-09-07T01:34:50;9.55;;;7.03;;
82703;SDS011;72427;42.000;21.464;2023-09-07T01:37:17;10.88;;;7.00;;
82703;SDS011;72427;42.000;21.464;2023-09-07T01:39:44;9.73;;;6.80;;
82703;SDS011;72427;42.000;21.464;2023-09-07T01:42:10;8.40;;;7.10;;
82703;SDS011;72427;42.000;21.464;2023-09-07T01:44:36;10.75;;;6.90;;
82703;SDS011;72427;42.000;21.464;2023-09-07T01:47:03;10.85;;;7.20;;
82703;SDS011;72427;42.000;21.464;2023-09-07T01:49:29;10.45;;;7.13;;
82703;SDS011;72427;42.000;21.464;2023-09-07T01:51:55;10.63;;;7.32;;
82703;SDS011;72427;42.000;21.464;2023-09-07T01:54:21;9.52;;;7.30;;
82703;SDS011;72427;42.000;21.464;2023-09-07T01:56:47;10.05;;;7.45;;
82703;SDS011;72427;42.000;21.464;2023-09-07T01:59:13;9.00;;;6.75;;
82703;SDS011;72427;42.000;21.464;2023-09-07T02:01:39;10.57;;;7.68;;
82703;SDS011;72427;42.000;21.464;2023-09-07T02:04:06;10.57;;;6.80;;
82703;SDS011;72427;42.000;21.464;2023-09-07T02:06:32;10.95;;;7.45;;
82703;SDS011;72427;42.000;21.464;2023-09-07T02:08:58;10.18;;;7.18;;
82703;SDS011;72427;42.000;21.464;2023-09-07T02:11:24;8.90;;;7.03;;
82703;SDS011;72427;42.000;21.464;2023-09-07T02:13:50;10.18;;;7.03;;
82703;SDS011;72427;42.000;21.464;2023-09-07T02:16:16;11.00;;;7.70;;
82703;SDS011;72427;42.000;21.464;2023-09-07T02:18:43;8.57;;;6.75;;
82703;SDS011;72427;42.000;21.464;2023-09-07T02:21:11;10.05;;;6.65;;
82703;SDS011;72427;42.000;21.464;2023-09-07T02:23:37;10.88;;;6.93;;
82703;SDS011;72427;42.000;21.464;2023-09-07T02:26:03;9.90;;;7.50;;
82703;SDS011;72427;42.000;21.464;2023-09-07T02:28:29;10.38;;;7.38;;
82703;SDS011;72427;42.000;21.464;2023-09-07T02:31:02;9.45;;;7.18;;
82703;SDS011;72427;42.000;21.464;2023-09-07T02:33:28;10.75;;;6.88;;
82703;SDS011;72427;42.000;21.464;2023-09-07T02:35:54;9.73;;;6.80;;
82703;SDS011;72427;42.000;21.464;2023-09-07T02:38:20;10.15;;;6.95;;
82703;SDS011;72427;42.000;21.464;2023-09-07T02:40:46;9.35;;;6.97;;
82703;SDS011;72427;42.000;21.464;2023-09-07T02:43:13;10.48;;;6.97;;
82703;SDS011;72427;42.000;21.464;2023-09-07T02:45:39;9.00;;;7.18;;
82703;SDS011;72427;42.000;21.464;2023-09-07T02:48:05;10.43;;;7.00;;
82703;SDS011;72427;42.000;21.464;2023-09-07T02:50:32;12.65;;;7.68;;
82703;SDS011;72427;42.000;21.464;2023-09-07T02:52:59;10.13;;;7.53;;
82703;SDS011;72427;42.000;21.464;2023-09-07T02:55:28;11.65;;;7.53;;
82703;SDS011;72427;42.000;21.464;2023-09-07T02:57:56;10.18;;;7.47;;
82703;SDS011;72427;42.000;21.464;2023-09-07T03:00:22;12.75;;;7.68;;
82703;SDS011;72427;42.000;21.464;2023-09-07T03:02:48;10.13;;;7.00;;
82703;SDS011;72427;42.000;21.464;2023-09-07T03:05:15;11.43;;;7.85;;
82703;SDS011;72427;42.000;21.464;2023-09-07T03:07:41;11.70;;;7.93;;
82703;SDS011;72427;42.000;21.464;2023-09-07T03:10:07;11.23;;;8.10;;
82703;SDS011;72427;42.000;21.464;2023-09-07T03:12:33;11.18;;;8.48;;
82703;SDS011;72427;42.000;21.464;2023-09-07T03:14:59;11.38;;;7.88;;
82703;SDS011;72427;42.000;21.464;2023-09-07T03:17:28;10.52;;;8.23;;
82703;SDS011;72427;42.000;21.464;2023-09-07T03:19:54;11.18;;;8.07;;
82703;SDS011;72427;42.000;21.464;2023-09-07T03:22:20;12.18;;;8.25;;
82703;SDS011;72427;42.000;21.464;2023-09-07T03:24:46;12.60;;;8.80;;
82703;SDS011;72427;42.000;21.464;2023-09-07T03:27:12;9.95;;;8.15;;
82703;SDS011;72427;42.000;21.464;2023-09-07T03:29:39;14.18;;;9.88;;
82703;SDS011;72427;42.000;21.464;2023-09-07T03:32:05;13.60;;;8.88;;
82703;SDS011;72427;42.000;21.464;2023-09-07T03:34:31;20.55;;;10.65;;
82703;SDS011;72427;42.000;21.464;2023-09-07T03:36:57;13.48;;;9.60;;
82703;SDS011;72427;42.000;21.464;2023-09-07T03:39:23;11.23;;;8.85;;
82703;SDS011;72427;42.000;21.464;2023-09-07T03:41:49;13.65;;;10.05;;
82703;SDS011;72427;42.000;21.464;2023-09-07T03:44:15;12.65;;;10.18;;
82703;SDS011;72427;42.000;21.464;2023-09-07T03:46:41;14.68;;;10.02;;
82703;SDS011;72427;42.000;21.464;2023-09-07T03:49:07;14.65;;;10.30;;
82703;SDS011;72427;42.000;21.464;2023-09-07T03:51:33;15.18;;;10.55;;
82703;SDS011;72427;42.000;21.464;2023-09-07T03:53:59;15.23;;;11.10;;
82703;SDS011;72427;42.000;21.464;2023-09-07T03:56:26;14.32;;;10.68;;
82703;SDS011;72427;42.000;21.464;2023-09-07T03:58:52;19.15;;;11.27;;
82703;SDS011;72427;42.000;21.464;2023-09-07T04:01:18;19.27;;;12.43;;
82703;SDS011;72427;42.000;21.464;2023-09-07T04:03:44;17.25;;;12.10;;
82703;SDS011;72427;42.000;21.464;2023-09-07T04:06:10;15.75;;;11.93;;
82703;SDS011;72427;42.000;21.464;2023-09-07T04:08:37;18.73;;;11.88;;
82703;SDS011;72427;42.000;21.464;2023-09-07T04:11:03;17.95;;;11.95;;
82703;SDS011;72427;42.000;21.464;2023-09-07T04:13:29;18.85;;;13.30;;
82703;SDS011;72427;42.000;21.464;2023-09-07T04:15:55;16.70;;;12.18;;
82703;SDS011;72427;42.000;21.464;2023-09-07T04:18:21;18.17;;;13.13;;
82703;SDS011;72427;42.000;21.464;2023-09-07T04:20:47;18.15;;;13.05;;
82703;SDS011;72427;42.000;21.464;2023-09-07T04:23:13;18.55;;;12.95;;
82703;SDS011;72427;42.000;21.464;2023-09-07T04:25:39;17.98;;;13.70;;
82703;SDS011;72427;42.000;21.464;2023-09-07T04:28:06;18.13;;;13.60;;
82703;SDS011;72427;42.000;21.464;2023-09-07T04:30:32;18.55;;;13.45;;
82703;SDS011;72427;42.000;21.464;2023-09-07T04:32:59;16.92;;;13.50;;
82703;SDS011;72427;42.000;21.464;2023-09-07T04:35:28;17.30;;;12.88;;
82703;SDS011;72427;42.000;21.464;2023-09-07T04:37:59;16.48;;;12.75;;
82703;SDS011;72427;42.000;21.464;2023-09-07T04:40:25;16.50;;;12.95;;
82703;SDS011;72427;42.000;21.464;2023-09-07T04:42:51;18.38;;;12.65;;
82703;SDS011;72427;42.000;21.464;2023-09-07T04:45:17;19.95;;;13.98;;
82703;SDS011;72427;42.000;21.464;2023-09-07T04:47:43;20.27;;;13.93;;
82703;SDS011;72427;42.000;21.464;2023-09-07T04:50:09;23.17;;;15.52;;
82703;SDS011;72427;42.000;21.464;2023-09-07T04:52:36;26.58;;;15.07;;
82703;SDS011;72427;42.000;21.464;2023-09-07T04:55:02;18.65;;;14.27;;
82703;SDS011;72427;42.000;21.464;2023-09-07T04:57:30;16.67;;;13.32;;
82703;SDS011;72427;42.000;21.464;2023-09-07T04:59:56;17.40;;;12.68;;
82703;SDS011;72427;42.000;21.464;2023-09-07T05:02:22;16.92;;;13.07;;
82703;SDS011;72427;42.000;21.464;2023-09-07T05:04:48;16.42;;;12.48;;
82703;SDS011;72427;42.000;21.464;2023-09-07T05:07:15;18.27;;;14.15;;
82703;SDS011;72427;42.000;21.464;2023-09-07T05:09:42;17.15;;;13.05;;
82703;SDS011;72427;42.000;21.464;2023-09-07T05:12:08;20.40;;;15.40;;
82703;SDS011;72427;42.000;21.464;2023-09-07T05:14:34;23.83;;;15.98;;
82703;SDS011;72427;42.000;21.464;2023-09-07T05:17:00;25.92;;;16.95;;
82703;SDS011;72427;42.000;21.464;2023-09-07T05:19:27;26.80;;;19.05;;
82703;SDS011;72427;42.000;21.464;2023-09-07T05:21:53;24.40;;;17.38;;
82703;SDS011;72427;42.000;21.464;2023-09-07T05:24:19;25.95;;;17.42;;
82703;SDS011;72427;42.000;21.464;2023-09-07T05:26:45;23.77;;;17.45;;
82703;SDS011;72427;42.000;21.464;2023-09-07T05:29:11;20.52;;;14.07;;
82703;SDS011;72427;42.000;21.464;2023-09-07T05:31:38;19.75;;;15.50;;
82703;SDS011;72427;42.000;21.464;2023-09-07T05:34:04;20.55;;;14.98;;
82703;SDS011;72427;42.000;21.464;2023-09-07T05:36:30;19.13;;;14.27;;
82703;SDS011;72427;42.000;21.464;2023-09-07T05:38:56;22.33;;;14.50;;
82703;SDS011;72427;42.000;21.464;2023-09-07T05:41:22;21.50;;;13.60;;
82703;SDS011;72427;42.000;21.464;2023-09-07T05:43:48;19.17;;;14.90;;
82703;SDS011;72427;42.000;21.464;2023-09-07T05:46:14;24.83;;;19.00;;
82703;SDS011;72427;42.000;21.464;2023-09-07T05:48:40;24.00;;;18.60;;
82703;SDS011;72427;42.000;21.464;2023-09-07T05:51:06;21.60;;;16.02;;
82703;SDS011;72427;42.000;21.464;2023-09-07T05:53:32;22.73;;;14.32;;
82703;SDS011;72427;42.000;21.464;2023-09-07T05:55:58;22.98;;;13.93;;
82703;SDS011;72427;42.000;21.464;2023-09-07T05:58:24;22.00;;;14.45;;
82703;SDS011;72427;42.000;21.464;2023-09-07T06:00:50;21.75;;;14.68;;
82703;SDS011;72427;42.000;21.464;2023-09-07T06:03:16;19.77;;;14.32;;
82703;SDS011;72427;42.000;21.464;2023-09-07T06:05:42;22.75;;;14.75;;
82703;SDS011;72427;42.000;21.464;2023-09-07T06:08:09;22.27;;;15.10;;
82703;SDS011;72427;42.000;21.464;2023-09-07T06:10:35;28.60;;;16.52;;
82703;SDS011;72427;42.000;21.464;2023-09-07T06:13:01;24.58;;;15.40;;
82703;SDS011;72427;42.000;21.464;2023-09-07T06:15:28;27.38;;;14.57;;
82703;SDS011;72427;42.000;21.464;2023-09-07T06:17:55;22.45;;;13.32;;
82703;SDS011;72427;42.000;21.464;2023-09-07T06:20:21;15.75;;;10.60;;
82703;SDS011;72427;42.000;21.464;2023-09-07T06:22:47;15.15;;;11.52;;
82703;SDS011;72427;42.000;21.464;2023-09-07T06:25:14;15.35;;;10.68;;
82703;SDS011;72427;42.000;21.464;2023-09-07T06:27:40;15.57;;;10.57;;
82703;SDS011;72427;42.000;21.464;2023-09-07T06:30:06;14.23;;;9.90;;
82703;SDS011;72427;42.000;21.464;2023-09-07T06:32:33;11.70;;;8.90;;
82703;SDS011;72427;42.000;21.464;2023-09-07T06:34:59;12.50;;;8.68;;
82703;SDS011;72427;42.000;21.464;2023-09-07T06:37:25;13.68;;;9.43;;
82703;SDS011;72427;42.000;21.464;2023-09-07T06:39:51;14.10;;;8.52;;
82703;SDS011;72427;42.000;21.464;2023-09-07T06:42:17;13.95;;;8.57;;
82703;SDS011;72427;42.000;21.464;2023-09-07T06:44:43;12.77;;;9.10;;
82703;SDS011;72427;42.000;21.464;2023-09-07T06:47:10;14.27;;;8.55;;
82703;SDS011;72427;42.000;21.464;2023-09-07T06:49:39;12.63;;;8.30;;
82703;SDS011;72427;42.000;21.464;2023-09-07T06:52:05;11.30;;;8.82;;
82703;SDS011;72427;42.000;21.464;2023-09-07T06:54:31;12.40;;;9.75;;
82703;SDS011;72427;42.000;21.464;2023-09-07T06:56:57;11.07;;;8.68;;
82703;SDS011;72427;42.000;21.464;2023-09-07T06:59:23;12.73;;;8.25;;
82703;SDS011;72427;42.000;21.464;2023-09-07T07:01:49;18.45;;;9.20;;
82703;SDS011;72427;42.000;21.464;2023-09-07T07:04:15;11.10;;;8.60;;
82703;SDS011;72427;42.000;21.464;2023-09-07T07:06:41;12.95;;;8.30;;
82703;SDS011;72427;42.000;21.464;2023-09-07T07:09:07;13.82;;;9.20;;
82703;SDS011;72427;42.000;21.464;2023-09-07T07:11:34;9.57;;;7.50;;
82703;SDS011;72427;42.000;21.464;2023-09-07T07:14:00;12.05;;;8.07;;
82703;SDS011;72427;42.000;21.464;2023-09-07T07:16:26;10.63;;;7.63;;
82703;SDS011;72427;42.000;21.464;2023-09-07T07:18:52;9.55;;;7.00;;
82703;SDS011;72427;42.000;21.464;2023-09-07T07:21:18;11.93;;;7.35;;
82703;SDS011;72427;42.000;21.464;2023-09-07T07:23:44;10.18;;;6.85;;
82703;SDS011;72427;42.000;21.464;2023-09-07T07:26:10;9.57;;;7.32;;
82703;SDS011;72427;42.000;21.464;2023-09-07T07:28:36;9.13;;;6.93;;
82703;SDS011;72427;42.000;21.464;2023-09-07T07:31:08;8.93;;;6.82;;
82703;SDS011;72427;42.000;21.464;2023-09-07T07:33:35;8.93;;;6.97;;
82703;SDS011;72427;42.000;21.464;2023-09-07T07:36:02;9.32;;;6.97;;
82703;SDS011;72427;42.000;21.464;2023-09-07T07:38:28;12.07;;;6.93;;
82703;SDS011;72427;42.000;21.464;2023-09-07T07:40:54;10.75;;;7.55;;
82703;SDS011;72427;42.000;21.464;2023-09-07T07:43:20;10.20;;;6.97;;
82703;SDS011;72427;42.000;21.464;2023-09-07T07:45:46;9.63;;;7.13;;
82703;SDS011;72427;42.000;21.464;2023-09-07T07:48:12;10.18;;;7.22;;
82703;SDS011;72427;42.000;21.464;2023-09-07T07:50:38;10.68;;;7.40;;
82703;SDS011;72427;42.000;21.464;2023-09-07T07:53:04;8.88;;;7.13;;
82703;SDS011;72427;42.000;21.464;2023-09-07T07:55:34;9.82;;;7.47;;
82703;SDS011;72427;42.000;21.464;2023-09-07T07:58:04;8.95;;;6.47;;
82703;SDS011;72427;42.000;21.464;2023-09-07T08:00:30;9.00;;;7.43;;
82703;SDS011;72427;42.000;21.464;2023-09-07T08:02:56;10.73;;;6.97;;
82703;SDS011;72427;42.000;21.464;2023-09-07T08:05:22;10.43;;;6.85;;
82703;SDS011;72427;42.000;21.464;2023-09-07T08:07:48;11.13;;;7.63;;
82703;SDS011;72427;42.000;21.464;2023-09-07T08:10:18;9.35;;;7.47;;
82703;SDS011;72427;42.000;21.464;2023-09-07T08:12:44;13.38;;;11.93;;
82703;SDS011;72427;42.000;21.464;2023-09-07T08:15:10;9.30;;;7.07;;
82703;SDS011;72427;42.000;21.464;2023-09-07T08:17:36;8.32;;;7.30;;
82703;SDS011;72427;42.000;21.464;2023-09-07T08:20:02;8.27;;;7.28;;
82703;SDS011;72427;42.000;21.464;2023-09-07T08:22:28;9.63;;;6.53;;
82703;SDS011;72427;42.000;21.464;2023-09-07T08:24:54;10.38;;;7.25;;
82703;SDS011;72427;42.000;21.464;2023-09-07T08:27:21;7.53;;;6.32;;
82703;SDS011;72427;42.000;21.464;2023-09-07T08:29:47;7.63;;;6.78;;
82703;SDS011;72427;42.000;21.464;2023-09-07T08:32:16;8.90;;;6.03;;
82703;SDS011;72427;42.000;21.464;2023-09-07T08:34:42;7.82;;;6.38;;
82703;SDS011;72427;42.000;21.464;2023-09-07T08:37:08;11.02;;;6.85;;
82703;SDS011;72427;42.000;21.464;2023-09-07T08:39:34;9.68;;;6.47;;
82703;SDS011;72427;42.000;21.464;2023-09-07T08:42:06;9.40;;;7.22;;
82703;SDS011;72427;42.000;21.464;2023-09-07T08:44:33;12.98;;;7.03;;
82703;SDS011;72427;42.000;21.464;2023-09-07T08:47:00;11.55;;;7.32;;
82703;SDS011;72427;42.000;21.464;2023-09-07T08:51:59;8.60;;;5.93;;
82703;SDS011;72427;42.000;21.464;2023-09-07T08:54:26;9.60;;;6.55;;
82703;SDS011;72427;42.000;21.464;2023-09-07T08:56:53;15.75;;;7.00;;
82703;SDS011;72427;42.000;21.464;2023-09-07T08:59:21;10.80;;;7.38;;
82703;SDS011;72427;42.000;21.464;2023-09-07T09:01:47;10.60;;;7.25;;
82703;SDS011;72427;42.000;21.464;2023-09-07T09:04:13;9.60;;;7.75;;
82703;SDS011;72427;42.000;21.464;2023-09-07T09:06:40;8.57;;;7.35;;
82703;SDS011;72427;42.000;21.464;2023-09-07T09:09:06;8.77;;;7.15;;
82703;SDS011;72427;42.000;21.464;2023-09-07T09:11:32;10.23;;;7.25;;
82703;SDS011;72427;42.000;21.464;2023-09-07T09:13:58;8.00;;;6.80;;
82703;SDS011;72427;42.000;21.464;2023-09-07T09:16:24;9.93;;;7.00;;
82703;SDS011;72427;42.000;21.464;2023-09-07T09:18:55;8.00;;;7.10;;
82703;SDS011;72427;42.000;21.464;2023-09-07T09:21:22;9.35;;;7.45;;
82703;SDS011;72427;42.000;21.464;2023-09-07T09:23:48;9.68;;;7.32;;
82703;SDS011;72427;42.000;21.464;2023-09-07T09:26:15;9.85;;;8.63;;
82703;SDS011;72427;42.000;21.464;2023-09-07T09:28:41;12.90;;;9.23;;
82703;SDS011;72427;42.000;21.464;2023-09-07T09:31:10;10.90;;;8.07;;
82703;SDS011;72427;42.000;21.464;2023-09-07T09:33:38;9.00;;;6.90;;
82703;SDS011;72427;42.000;21.464;2023-09-07T09:36:04;10.15;;;7.93;;
82703;SDS011;72427;42.000;21.464;2023-09-07T09:38:31;10.63;;;7.20;;
82703;SDS011;72427;42.000;21.464;2023-09-07T09:40:58;8.13;;;6.93;;
82703;SDS011;72427;42.000;21.464;2023-09-07T09:43:24;15.35;;;8.07;;
82703;SDS011;72427;42.000;21.464;2023-09-07T09:45:50;10.27;;;7.97;;
82703;SDS011;72427;42.000;21.464;2023-09-07T09:48:18;10.38;;;7.47;;
82703;SDS011;72427;42.000;21.464;2023-09-07T09:50:47;9.68;;;6.75;;
82703;SDS011;72427;42.000;21.464;2023-09-07T09:53:17;11.05;;;7.72;;
82703;SDS011;72427;42.000;21.464;2023-09-07T09:55:47;9.63;;;7.15;;
82703;SDS011;72427;42.000;21.464;2023-09-07T09:58:14;8.45;;;7.43;;
82703;SDS011;72427;42.000;21.464;2023-09-07T10:00:42;9.27;;;7.32;;
82703;SDS011;72427;42.000;21.464;2023-09-07T10:03:09;9.25;;;7.25;;
82703;SDS011;72427;42.000;21.464;2023-09-07T10:05:36;7.65;;;6.30;;
82703;SDS011;72427;42.000;21.464;2023-09-07T10:08:04;10.07;;;7.43;;
82703;SDS011;72427;42.000;21.464;2023-09-07T10:10:33;12.57;;;8.65;;
82703;SDS011;72427;42.000;21.464;2023-09-07T10:13:01;9.40;;;6.40;;
82703;SDS011;72427;42.000;21.464;2023-09-07T10:15:27;10.90;;;6.88;;
82703;SDS011;72427;42.000;21.464;2023-09-07T10:18:04;7.30;;;6.25;;
82703;SDS011;72427;42.000;21.464;2023-09-07T10:20:34;9.35;;;6.97;;
82703;SDS011;72427;42.000;21.464;2023-09-07T10:23:04;8.73;;;7.45;;
82703;SDS011;72427;42.000;21.464;2023-09-07T10:25:30;6.93;;;6.22;;
82703;SDS011;72427;42.000;21.464;2023-09-07T10:27:57;7.82;;;6.03;;
82703;SDS011;72427;42.000;21.464;2023-09-07T10:30:24;10.85;;;8.02;;
82703;SDS011;72427;42.000;21.464;2023-09-07T10:32:51;8.50;;;7.60;;
82703;SDS011;72427;42.000;21.464;2023-09-07T10:35:18;7.80;;;6.95;;
82703;SDS011;72427;42.000;21.464;2023-09-07T10:37:47;9.20;;;7.43;;
82703;SDS011;72427;42.000;21.464;2023-09-07T10:40:18;7.75;;;6.63;;
82703;SDS011;72427;42.000;21.464;2023-09-07T10:42:44;8.88;;;6.30;;
82703;SDS011;72427;42.000;21.464;2023-09-07T10:45:11;9.55;;;6.78;;
82703;SDS011;72427;42.000;21.464;2023-09-07T10:47:42;9.52;;;7.28;;
82703;SDS011;72427;42.000;21.464;2023-09-07T10:50:11;8.35;;;7.50;;
82703;SDS011;72427;42.000;21.464;2023-09-07T10:52:39;10.48;;;7.95;;
82703;SDS011;72427;42.000;21.464;2023-09-07T10:55:10;12.60;;;7.55;;
82703;SDS011;72427;42.000;21.464;2023-09-07T10:57:43;7.30;;;6.38;;
82703;SDS011;72427;42.000;21.464;2023-09-07T11:00:10;10.90;;;6.57;;
82703;SDS011;72427;42.000;21.464;2023-09-07T11:02:37;10.93;;;7.18;;
82703;SDS011;72427;42.000;21.464;2023-09-07T11:05:03;9.88;;;7.28;;
82703;SDS011;72427;42.000;21.464;2023-09-07T11:07:29;8.52;;;7.32;;
82703;SDS011;72427;42.000;21.464;2023-09-07T11:09:55;10.10;;;7.35;;
82703;SDS011;72427;42.000;21.464;2023-09-07T11:12:21;7.20;;;6.50;;
82703;SDS011;72427;42.000;21.464;2023-09-07T11:14:47;9.02;;;7.05;;
82703;SDS011;72427;42.000;21.464;2023-09-07T11:17:14;7.88;;;5.60;;
82703;SDS011;72427;42.000;21.464;2023-09-07T11:19:41;6.50;;;4.82;;
82703;SDS011;72427;42.000;21.464;2023-09-07T11:22:10;8.30;;;6.38;;
82703;SDS011;72427;42.000;21.464;2023-09-07T11:24:36;7.00;;;5.40;;
82703;SDS011;72427;42.000;21.464;2023-09-07T11:27:02;8.27;;;6.82;;
82703;SDS011;72427;42.000;21.464;2023-09-07T11:29:32;8.13;;;7.07;;
82703;SDS011;72427;42.000;21.464;2023-09-07T11:32:07;9.25;;;8.30;;
82703;SDS011;72427;42.000;21.464;2023-09-07T11:34:33;7.88;;;6.82;;
82703;SDS011;72427;42.000;21.464;2023-09-07T11:37:02;8.73;;;5.75;;
82703;SDS011;72427;42.000;21.464;2023-09-07T11:39:28;9.93;;;8.30;;
82703;SDS011;72427;42.000;21.464;2023-09-07T11:41:54;9.50;;;7.45;;
82703;SDS011;72427;42.000;21.464;2023-09-07T11:44:20;8.93;;;7.88;;
82703;SDS011;72427;42.000;21.464;2023-09-07T11:46:46;9.18;;;6.90;;
82703;SDS011;72427;42.000;21.464;2023-09-07T11:49:12;9.63;;;7.00;;
82703;SDS011;72427;42.000;21.464;2023-09-07T11:51:38;10.07;;;7.78;;
82703;SDS011;72427;42.000;21.464;2023-09-07T11:54:04;7.50;;;6.68;;
82703;SDS011;72427;42.000;21.464;2023-09-07T11:56:31;6.50;;;5.82;;
82703;SDS011;72427;42.000;21.464;2023-09-07T11:58:57;7.30;;;6.60;;
82703;SDS011;72427;42.000;21.464;2023-09-07T12:01:23;9.68;;;8.38;;
82703;SDS011;72427;42.000;21.464;2023-09-07T12:03:49;9.88;;;7.72;;
82703;SDS011;72427;42.000;21.464;2023-09-07T12:06:15;8.00;;;7.00;;
82703;SDS011;72427;42.000;21.464;2023-09-07T12:08:42;7.97;;;7.07;;
82703;SDS011;72427;42.000;21.464;2023-09-07T12:11:08;11.18;;;8.57;;
82703;SDS011;72427;42.000;21.464;2023-09-07T12:13:34;8.27;;;7.40;;
82703;SDS011;72427;42.000;21.464;2023-09-07T12:16:00;7.70;;;6.90;;
82703;SDS011;72427;42.000;21.464;2023-09-07T12:18:27;13.38;;;8.18;;
82703;SDS011;72427;42.000;21.464;2023-09-07T12:20:53;9.73;;;6.40;;
82703;SDS011;72427;42.000;21.464;2023-09-07T12:23:19;10.40;;;6.53;;
82703;SDS011;72427;42.000;21.464;2023-09-07T12:25:45;6.20;;;5.50;;
82703;SDS011;72427;42.000;21.464;2023-09-07T12:28:16;6.55;;;5.45;;
82703;SDS011;72427;42.000;21.464;2023-09-07T12:30:42;9.45;;;8.10;;
82703;SDS011;72427;42.000;21.464;2023-09-07T12:33:09;10.40;;;6.47;;
82703;SDS011;72427;42.000;21.464;2023-09-07T12:35:36;8.02;;;6.93;;
82703;SDS011;72427;42.000;21.464;2023-09-07T12:38:02;7.97;;;6.05;;
82703;SDS011;72427;42.000;21.464;2023-09-07T12:40:28;11.40;;;7.18;;
82703;SDS011;72427;42.000;21.464;2023-09-07T12:42:54;11.63;;;6.50;;
82703;SDS011;72427;42.000;21.464;2023-09-07T12:45:20;9.07;;;5.90;;
82703;SDS011;72427;42.000;21.464;2023-09-07T12:47:46;9.75;;;5.80;;
82703;SDS011;72427;42.000;21.464;2023-09-07T12:50:12;10.30;;;5.03;;
82703;SDS011;72427;42.000;21.464;2023-09-07T12:52:40;8.07;;;6.20;;
82703;SDS011;72427;42.000;21.464;2023-09-07T12:55:07;8.88;;;5.82;;
82703;SDS011;72427;42.000;21.464;2023-09-07T12:57:33;8.93;;;6.60;;
82703;SDS011;72427;42.000;21.464;2023-09-07T12:59:59;8.73;;;7.47;;
82703;SDS011;72427;42.000;21.464;2023-09-07T13:02:25;9.48;;;5.63;;
82703;SDS011;72427;42.000;21.464;2023-09-07T13:04:53;8.40;;;6.22;;
82703;SDS011;72427;42.000;21.464;2023-09-07T13:07:19;8.50;;;5.55;;
82703;SDS011;72427;42.000;21.464;2023-09-07T13:09:45;8.48;;;6.03;;
82703;SDS011;72427;42.000;21.464;2023-09-07T13:12:12;15.65;;;6.60;;
82703;SDS011;72427;42.000;21.464;2023-09-07T13:14:38;8.10;;;5.90;;
82703;SDS011;72427;42.000;21.464;2023-09-07T13:17:04;8.00;;;5.55;;
82703;SDS011;72427;42.000;21.464;2023-09-07T13:19:31;8.90;;;5.45;;
82703;SDS011;72427;42.000;21.464;2023-09-07T13:21:57;7.88;;;5.38;;
82703;SDS011;72427;42.000;21.464;2023-09-07T13:24:23;9.93;;;6.63;;
82703;SDS011;72427;42.000;21.464;2023-09-07T13:26:50;7.25;;;5.25;;
82703;SDS011;72427;42.000;21.464;2023-09-07T13:29:17;7.68;;;5.28;;
82703;SDS011;72427;42.000;21.464;2023-09-07T13:31:43;6.75;;;6.03;;
82703;SDS011;72427;42.000;21.464;2023-09-07T13:34:09;6.60;;;5.30;;
82703;SDS011;72427;42.000;21.464;2023-09-07T13:36:35;6.68;;;5.40;;
82703;SDS011;72427;42.000;21.464;2023-09-07T13:39:01;6.05;;;4.70;;
82703;SDS011;72427;42.000;21.464;2023-09-07T13:41:27;10.02;;;6.38;;
82703;SDS011;72427;42.000;21.464;2023-09-07T13:43:53;7.75;;;5.18;;
82703;SDS011;72427;42.000;21.464;2023-09-07T13:46:19;8.05;;;5.35;;
82703;SDS011;72427;42.000;21.464;2023-09-07T13:48:45;7.32;;;5.40;;
82703;SDS011;72427;42.000;21.464;2023-09-07T13:51:11;7.30;;;5.47;;
82703;SDS011;72427;42.000;21.464;2023-09-07T13:53:37;7.93;;;5.85;;
82703;SDS011;72427;42.000;21.464;2023-09-07T13:56:03;7.15;;;5.82;;
82703;SDS011;72427;42.000;21.464;2023-09-07T13:58:29;5.95;;;5.25;;
82703;SDS011;72427;42.000;21.464;2023-09-07T14:00:55;7.28;;;5.82;;
82703;SDS011;72427;42.000;21.464;2023-09-07T14:03:21;7.00;;;5.90;;
82703;SDS011;72427;42.000;21.464;2023-09-07T14:05:47;7.68;;;5.57;;
82703;SDS011;72427;42.000;21.464;2023-09-07T14:08:13;7.10;;;5.60;;
82703;SDS011;72427;42.000;21.464;2023-09-07T14:10:39;9.80;;;5.70;;
82703;SDS011;72427;42.000;21.464;2023-09-07T14:13:05;8.25;;;5.88;;
82703;SDS011;72427;42.000;21.464;2023-09-07T14:15:31;6.18;;;5.32;;
82703;SDS011;72427;42.000;21.464;2023-09-07T14:17:57;7.90;;;5.60;;
82703;SDS011;72427;42.000;21.464;2023-09-07T14:20:25;6.22;;;5.50;;
82703;SDS011;72427;42.000;21.464;2023-09-07T14:22:51;7.30;;;5.40;;
82703;SDS011;72427;42.000;21.464;2023-09-07T14:25:18;8.55;;;5.50;;